Time;durP1;ratioP1;P1;durP2;ratioP2;P2;SDS_P1;SDS_P2;PMS_P1;PMS_P2;Temp;Humidity;BMP_temperature;BMP_pressure;BME280_temperature;BME280_humidity;BME280_pressure;Samples;Min_cycle;Max_cycle;Signal;HPM_P1;HPM_P2
2021/01/03 00:01:23;;;;;;;12.50;8.90;;;;;;;0.14;97.24;151405.59;5012030;28;20473;-89
2021/01/03 00:03:58;;;;;;;11.40;8.50;;;;;;;0.16;98.23;151410.75;5013212;28;20421;-89
2021/01/03 00:06:34;;;;;;;11.43;8.63;;;;;;;0.17;97.70;151413.28;5011896;28;20523;-89
2021/01/03 00:09:09;;;;;;;14.27;8.90;;;;;;;0.14;97.68;151405.59;5011529;28;20918;-89
2021/01/03 00:11:45;;;;;;;10.63;8.43;;;;;;;0.18;98.27;151417.19;4996841;28;20434;-88
2021/01/03 00:14:21;;;;;;;10.53;8.13;;;;;;;0.19;98.11;151419.72;4992271;28;20437;-89
2021/01/03 00:16:58;;;;;;;11.43;8.37;;;;;;;0.23;98.23;151428.72;5009089;28;20440;-88
2021/01/03 00:19:34;;;;;;;10.00;8.53;;;;;;;0.21;97.06;151424.88;4996740;28;20486;-89
2021/01/03 00:22:10;;;;;;;12.10;7.93;;;;;;;0.19;98.26;151418.41;5011548;28;20856;-89
2021/01/03 00:24:45;;;;;;;13.97;8.57;;;;;;;0.17;97.02;151413.28;5011671;28;20440;-89
2021/01/03 00:27:20;;;;;;;10.37;7.97;;;;;;;0.14;97.37;151406.88;5011927;28;20456;-89
2021/01/03 00:29:56;;;;;;;13.30;8.23;;;;;;;0.14;96.23;151406.88;5011461;28;20886;-89
2021/01/03 00:32:31;;;;;;;11.80;8.37;;;;;;;0.13;96.86;151403.06;5011561;28;20514;-89
2021/01/03 00:35:10;;;;;;;10.00;7.93;;;;;;;0.11;96.81;151399.16;4996743;28;20437;-88
2021/01/03 00:37:45;;;;;;;11.50;8.30;;;;;;;0.12;96.92;151400.47;5012075;28;20421;-89
2021/01/03 00:40:21;;;;;;;12.70;8.40;;;;;;;0.13;97.57;151403.06;5011654;28;20454;-89
2021/01/03 00:42:57;;;;;;;14.20;9.00;;;;;;;0.13;97.06;151403.06;5012510;28;20890;-89
2021/01/03 00:45:34;;;;;;;13.00;8.67;;;;;;;0.12;97.60;151400.47;5027820;28;20473;-89
2021/01/03 00:48:10;;;;;;;11.40;8.57;;;;;;;0.15;98.66;151408.19;5011577;28;20489;-89
2021/01/03 00:50:46;;;;;;;12.20;8.30;;;;;;;0.14;96.80;151405.59;5011253;28;20457;-90
2021/01/03 00:53:21;;;;;;;10.03;7.70;;;;;;;0.15;96.64;151408.19;5011431;28;20921;-89
2021/01/03 00:55:56;;;;;;;10.33;7.40;;;;;;;0.13;96.44;151404.34;5013263;28;20436;-89
2021/01/03 00:58:32;;;;;;;10.67;7.93;;;;;;;0.14;96.12;151405.59;5011638;28;20434;-89
2021/01/03 01:01:08;;;;;;;10.20;7.60;;;;;;;0.14;95.95;151406.88;5038475;28;20438;-89
2021/01/03 01:03:43;;;;;;;11.57;8.00;;;;;;;0.15;97.92;151409.47;5013546;28;20442;-88
2021/01/03 01:06:19;;;;;;;10.47;7.87;;;;;;;0.14;96.99;151405.59;4998026;28;20449;-89
2021/01/03 01:08:54;;;;;;;12.73;8.83;;;;;;;0.15;96.16;151409.47;4996116;28;20885;-89
2021/01/03 01:11:30;;;;;;;10.00;7.53;;;;;;;0.11;95.44;151397.94;5011338;28;20427;-89
2021/01/03 01:14:06;;;;;;;11.57;7.90;;;;;;;0.10;95.57;151396.63;5027439;28;20503;-89
2021/01/03 01:16:42;;;;;;;10.03;7.03;;;;;;;0.07;95.91;151387.63;4995754;28;20443;-89
2021/01/03 01:19:17;;;;;;;10.60;7.63;;;;;;;0.08;95.60;151390.22;4995485;28;20451;-89
2021/01/03 01:21:52;;;;;;;9.60;6.80;;;;;;;0.11;95.97;151397.94;5010991;28;20811;-89
2021/01/03 01:24:28;;;;;;;9.63;6.67;;;;;;;0.12;95.72;151400.47;5007449;28;20442;-89
2021/01/03 01:27:03;;;;;;;9.60;7.27;;;;;;;0.12;95.89;151400.47;5004788;28;20460;-88
2021/01/03 01:29:39;;;;;;;10.20;7.03;;;;;;;0.15;96.38;151408.19;5011075;28;20550;-89
2021/01/03 01:32:15;;;;;;;9.27;7.40;;;;;;;0.15;96.79;151409.47;5026336;28;20443;-89
2021/01/03 01:34:51;;;;;;;9.87;6.97;;;;;;;0.12;95.51;151400.47;5010942;28;20445;-88
2021/01/03 01:37:26;;;;;;;10.77;7.50;;;;;;;0.14;95.65;151405.59;5010472;28;20439;-89
2021/01/03 01:40:04;;;;;;;10.80;7.70;;;;;;;0.10;95.68;151395.34;4995446;28;20436;-89
2021/01/03 01:42:39;;;;;;;11.53;8.10;;;;;;;0.10;95.44;151396.63;4995203;28;20464;-89
2021/01/03 01:45:18;;;;;;;9.43;7.60;;;;;;;0.13;95.60;151403.06;4995523;28;20940;-88
2021/01/03 01:47:58;;;;;;;10.67;7.57;;;;;;;0.17;98.08;151413.28;5010430;28;20505;-88
2021/01/03 01:50:39;;;;;;;11.07;7.90;;;;;;;0.15;97.06;151408.19;5010904;28;20440;-88
2021/01/03 01:53:20;;;;;;;13.87;8.17;;;;;;;0.12;95.63;151400.47;5010645;28;20461;-88
2021/01/03 01:56:01;;;;;;;15.03;7.53;;;;;;;0.13;96.73;151403.06;5009813;28;20468;-88
2021/01/03 01:58:42;;;;;;;10.20;7.93;;;;;;;0.13;97.30;151404.34;5010490;28;20899;-88
2021/01/03 02:01:21;;;;;;;12.40;8.10;;;;;;;0.09;96.29;151392.75;5010901;28;20436;-88
2021/01/03 02:04:01;;;;;;;10.87;7.70;;;;;;;0.07;97.67;151388.94;5010651;28;20442;-88
2021/01/03 02:06:40;;;;;;;13.17;8.73;;;;;;;0.07;97.49;151387.63;4994988;28;20536;-88
2021/01/03 02:09:30;;;;;;;13.10;8.23;;;;;;;0.06;98.14;151385.06;5010003;28;20455;-88
2021/01/03 02:12:10;;;;;;;13.10;8.40;;;;;;;-0.01;98.78;151369.69;4995112;28;20434;-88
2021/01/03 02:14:45;;;;;;;11.27;8.57;;;;;;;0.00;100.00;151370.97;5014076;28;20437;-87
2021/01/03 02:17:21;;;;;;;12.00;8.57;;;;;;;-0.03;100.00;151364.53;5012606;28;20441;-87
2021/01/03 02:19:58;;;;;;;12.63;8.50;;;;;;;-0.12;100.00;151341.44;5003490;28;20445;-88
2021/01/03 02:22:36;;;;;;;12.00;8.40;;;;;;;-0.13;100.00;151338.88;4994143;28;20449;-88
2021/01/03 02:25:14;;;;;;;11.03;7.77;;;;;;;-0.13;100.00;151338.88;4990537;28;20435;-88
2021/01/03 02:28:01;;;;;;;11.20;8.80;;;;;;;-0.14;100.00;151335.03;4979730;28;20930;-87
2021/01/03 02:30:37;;;;;;;16.43;9.23;;;;;;;-0.21;100.00;151318.34;5009109;28;20457;-88
2021/01/03 02:33:19;;;;;;;12.90;8.87;;;;;;;-0.21;100.00;151317.03;4994748;28;20446;-88
2021/01/03 02:35:57;;;;;;;15.00;9.10;;;;;;;-0.29;100.00;151297.81;5010137;28;20882;-88
2021/01/03 02:38:36;;;;;;;13.10;9.67;;;;;;;-0.34;100.00;151284.97;5009637;28;20535;-88
2021/01/03 02:41:12;;;;;;;16.63;10.40;;;;;;;-0.35;100.00;151282.44;5009566;28;20477;-88
2021/01/03 02:43:48;;;;;;;17.10;11.50;;;;;;;-0.37;100.00;151277.28;4994483;28;20432;-88
2021/01/03 02:46:24;;;;;;;15.60;10.07;;;;;;;-0.40;100.00;151268.34;5009847;28;20459;-88
2021/01/03 02:48:59;;;;;;;11.97;9.10;;;;;;;-0.37;100.00;151276.03;5009343;28;20461;-88
2021/01/03 02:51:37;;;;;;;13.30;8.87;;;;;;;-0.35;100.00;151282.44;5026162;28;20487;-87
2021/01/03 02:54:13;;;;;;;17.97;11.50;;;;;;;-0.41;100.00;151267.03;5026194;28;20446;-88
2021/01/03 02:56:49;;;;;;;17.90;11.63;;;;;;;-0.41;100.00;151265.75;5009576;28;20458;-88
2021/01/03 02:59:25;;;;;;;13.23;9.23;;;;;;;-0.39;100.00;151270.88;5009909;28;20918;-88
2021/01/03 03:02:00;;;;;;;16.90;11.43;;;;;;;-0.38;100.00;151273.44;5009345;28;20803;-88
2021/01/03 03:04:36;;;;;;;14.80;11.20;;;;;;;-0.33;100.00;151286.28;5009441;28;20444;-88
2021/01/03 03:07:11;;;;;;;14.40;10.50;;;;;;;-0.34;100.00;151283.69;5010751;28;20545;-88
2021/01/03 03:09:46;;;;;;;14.57;10.90;;;;;;;-0.42;100.00;151264.47;5013003;28;20836;-88
2021/01/03 03:12:23;;;;;;;17.23;10.30;;;;;;;-0.45;100.00;151256.75;4997308;28;20450;-88
2021/01/03 03:14:58;;;;;;;15.87;10.87;;;;;;;-0.43;100.00;151261.94;4997443;28;20440;-88
2021/01/03 03:17:33;;;;;;;16.50;10.30;;;;;;;-0.43;100.00;151261.94;5012640;28;20468;-87
2021/01/03 03:20:11;;;;;;;17.30;10.67;;;;;;;-0.40;100.00;151269.63;4993078;28;20449;-88
2021/01/03 03:22:46;;;;;;;15.67;9.90;;;;;;;-0.48;100.00;151249.09;5016290;28;20528;-88
2021/01/03 03:25:23;;;;;;;15.57;10.60;;;;;;;-0.49;100.00;151246.53;5012790;28;20850;-88
2021/01/03 03:27:59;;;;;;;14.20;10.50;;;;;;;-0.44;100.00;151259.34;5013548;28;20449;-88
2021/01/03 03:30:35;;;;;;;16.63;11.57;;;;;;;-0.44;100.00;151259.34;5012780;28;20453;-88
2021/01/03 03:33:10;;;;;;;18.20;11.70;;;;;;;-0.48;100.00;151247.81;5012412;28;20441;-87
2021/01/03 03:35:46;;;;;;;14.03;10.60;;;;;;;-0.44;100.00;151258.03;5012822;28;20428;-87
2021/01/03 03:38:21;;;;;;;16.27;11.70;;;;;;;-0.43;100.00;151261.94;5012948;28;20448;-88
2021/01/03 03:40:57;;;;;;;16.40;11.53;;;;;;;-0.50;100.00;151243.94;5011063;28;20444;-88
2021/01/03 03:43:33;;;;;;;14.90;9.60;;;;;;;-0.46;100.00;151254.22;4997312;28;20493;-87
2021/01/03 03:46:09;;;;;;;15.07;10.30;;;;;;;-0.46;100.00;151252.94;5012518;28;20444;-88
2021/01/03 03:48:45;;;;;;;15.80;11.23;;;;;;;-0.44;100.00;151258.03;5013115;28;20463;-88
2021/01/03 03:51:22;;;;;;;17.60;11.20;;;;;;;-0.43;100.00;151261.94;5008972;28;20916;-88
2021/01/03 03:53:57;;;;;;;18.23;11.00;;;;;;;-0.43;100.00;151260.63;5009273;28;20444;-87
2021/01/03 03:56:33;;;;;;;18.27;11.97;;;;;;;-0.35;100.00;151282.44;5011939;28;20449;-88
2021/01/03 03:59:09;;;;;;;18.27;12.33;;;;;;;-0.42;100.00;151264.47;4996857;28;20532;-88
2021/01/03 04:01:44;;;;;;;18.50;12.40;;;;;;;-0.43;100.00;151261.94;5012709;28;20537;-88
2021/01/03 04:04:22;;;;;;;17.10;11.17;;;;;;;-0.44;100.00;151258.03;4997132;28;20444;-88
2021/01/03 04:06:57;;;;;;;18.40;11.60;;;;;;;-0.48;100.00;151249.09;5011933;28;20438;-88
2021/01/03 04:09:33;;;;;;;18.20;11.23;;;;;;;-0.51;100.00;151240.09;5011920;28;20855;-88
2021/01/03 04:12:08;;;;;;;18.27;11.97;;;;;;;-0.47;100.00;151251.63;5013075;28;20503;-88
2021/01/03 04:14:45;;;;;;;16.27;11.50;;;;;;;-0.52;100.00;151238.81;4996829;28;20867;-89
2021/01/03 04:17:21;;;;;;;18.80;11.87;;;;;;;-0.48;100.00;151249.09;4980284;28;20437;-87
2021/01/03 04:19:56;;;;;;;19.33;13.30;;;;;;;-0.45;100.00;151256.75;5011771;28;20444;-88
2021/01/03 04:22:31;;;;;;;16.50;12.13;;;;;;;-0.44;100.00;151258.03;5011993;28;20455;-88
2021/01/03 04:25:07;;;;;;;18.03;11.37;;;;;;;-0.42;100.00;151264.47;5011514;28;20440;-88
2021/01/03 04:27:43;;;;;;;17.80;11.13;;;;;;;-0.42;100.00;151263.16;5011631;28;20468;-88
2021/01/03 04:30:21;;;;;;;18.80;12.00;;;;;;;-0.38;100.00;151273.44;5011581;28;20443;-88
2021/01/03 04:32:56;;;;;;;21.03;11.93;;;;;;;-0.45;100.00;151255.50;5011615;28;20480;-88
2021/01/03 04:35:31;;;;;;;21.53;12.30;;;;;;;-0.39;100.00;151272.16;5011649;28;20480;-88
2021/01/03 04:38:06;;;;;;;18.80;11.33;;;;;;;-0.42;100.00;151264.47;5014868;28;20447;-88
2021/01/03 04:40:41;;;;;;;16.30;11.00;;;;;;;-0.45;100.00;151256.75;5023894;28;20428;-88
2021/01/03 04:43:20;;;;;;;19.57;11.67;;;;;;;-0.46;100.00;151254.22;5019747;28;20809;-88
2021/01/03 04:46:03;;;;;;;21.40;13.40;;;;;;;-0.44;100.00;151259.34;5011739;28;20432;-88
2021/01/03 04:48:39;;;;;;;17.47;11.87;;;;;;;-0.43;100.00;151260.63;4996599;28;20989;-88
2021/01/03 04:51:19;;;;;;;19.10;12.30;;;;;;;-0.43;100.00;151261.94;5011706;28;20452;-88
2021/01/03 04:54:05;;;;;;;18.50;11.07;;;;;;;-0.50;100.00;151243.94;5011303;28;20452;-88
2021/01/03 04:56:51;;;;;;;18.20;11.20;;;;;;;-0.40;100.00;151269.63;5011356;28;20444;-88
2021/01/03 04:59:36;;;;;;;22.47;12.23;;;;;;;-0.42;100.00;151264.47;4992418;28;20434;-88
2021/01/03 05:02:46;;;;;;;19.07;11.67;;;;;;;-0.38;100.00;151274.75;5008914;28;20473;-88
2021/01/03 05:05:29;;;;;;;19.37;11.83;;;;;;;-0.34;100.00;151283.69;5032242;28;20440;-88
2021/01/03 05:08:17;;;;;;;18.50;11.67;;;;;;;-0.37;100.00;151277.28;5016727;28;21012;-88
2021/01/03 05:10:53;;;;;;;20.67;11.60;;;;;;;-0.35;100.00;151281.16;5011607;28;20867;-88
2021/01/03 05:13:45;;;;;;;19.00;11.70;;;;;;;-0.36;100.00;151279.88;4995802;28;20440;-88
2021/01/03 05:16:21;;;;;;;19.80;11.80;;;;;;;-0.34;100.00;151284.97;5021151;28;20457;-88
2021/01/03 05:18:57;;;;;;;18.97;11.40;;;;;;;-0.43;100.00;151261.94;5014195;28;20437;-88
2021/01/03 05:21:48;;;;;;;18.30;12.13;;;;;;;-0.38;100.00;151273.44;5037847;28;20443;-88
2021/01/03 05:24:24;;;;;;;17.83;10.77;;;;;;;-0.37;100.00;151277.28;4995826;28;20539;-89
2021/01/03 05:27:16;;;;;;;18.67;11.10;;;;;;;-0.37;100.00;151276.03;4985227;28;20968;-89
2021/01/03 05:29:51;;;;;;;17.70;12.10;;;;;;;-0.37;100.00;151277.28;4996013;28;20445;-89
2021/01/03 05:32:29;;;;;;;18.70;11.40;;;;;;;-0.37;100.00;151277.28;5011068;28;20443;-89
2021/01/03 05:35:16;;;;;;;17.47;12.00;;;;;;;-0.34;100.00;151284.97;5011608;28;20454;-88
2021/01/03 05:37:53;;;;;;;20.07;11.80;;;;;;;-0.39;100.00;151272.16;5015488;28;20450;-89
2021/01/03 05:40:31;;;;;;;20.80;12.00;;;;;;;-0.38;100.00;151274.75;4995492;28;20445;-88
2021/01/03 05:43:15;;;;;;;15.97;10.40;;;;;;;-0.34;100.00;151284.97;5010419;28;20480;-89
2021/01/03 05:46:05;;;;;;;19.10;12.10;;;;;;;-0.36;100.00;151279.88;5021366;28;20447;-89
2021/01/03 05:48:43;;;;;;;18.70;11.23;;;;;;;-0.44;100.00;151259.34;5000745;28;20502;-89
2021/01/03 05:51:39;;;;;;;18.37;11.73;;;;;;;-0.40;100.00;151269.63;5010643;28;20429;-89
2021/01/03 05:54:19;;;;;;;17.67;10.83;;;;;;;-0.37;100.00;151276.03;5010241;28;20453;-88
2021/01/03 05:57:03;;;;;;;20.13;12.17;;;;;;;-0.44;100.00;151259.34;4976093;28;20886;-89
2021/01/03 05:59:40;;;;;;;22.67;13.00;;;;;;;-0.49;100.00;151246.53;4990726;28;20940;-88
2021/01/03 06:02:21;;;;;;;20.10;11.90;;;;;;;-0.47;100.00;151251.63;4993731;28;20940;-89
2021/01/03 06:05:04;;;;;;;20.17;11.67;;;;;;;-0.49;100.00;151246.53;5010278;28;20840;-88
2021/01/03 06:08:06;;;;;;;23.37;13.73;;;;;;;-0.49;100.00;151246.53;5010564;28;20517;-89
2021/01/03 06:10:42;;;;;;;17.30;11.20;;;;;;;-0.46;100.00;151254.22;4995179;28;20437;-88
2021/01/03 06:13:19;;;;;;;19.37;12.30;;;;;;;-0.44;100.00;151259.34;5010413;28;20442;-89
2021/01/03 06:15:58;;;;;;;17.70;11.80;;;;;;;-0.45;100.00;151255.50;4991899;28;20509;-89
2021/01/03 06:18:37;;;;;;;16.53;11.67;;;;;;;-0.48;100.00;151247.81;5024535;28;20442;-89
2021/01/03 06:21:17;;;;;;;14.27;10.03;;;;;;;-0.46;100.00;151254.22;5032562;28;20435;-89
2021/01/03 06:24:08;;;;;;;17.27;12.07;;;;;;;-0.48;100.00;151249.09;5013702;28;20436;-88
2021/01/03 06:26:48;;;;;;;20.27;12.07;;;;;;;-0.45;100.00;151256.75;5010091;28;20479;-89
2021/01/03 06:29:29;;;;;;;16.60;11.27;;;;;;;-0.45;100.00;151256.75;5054683;28;20461;-89
2021/01/03 06:32:28;;;;;;;16.40;11.87;;;;;;;-0.45;100.00;151255.50;4993487;28;20431;-89
2021/01/03 06:35:09;;;;;;;16.87;11.17;;;;;;;-0.43;100.00;151261.94;4990726;28;20987;-89
2021/01/03 06:37:50;;;;;;;18.60;12.80;;;;;;;-0.39;100.00;151272.16;5008305;28;20836;-89
2021/01/03 06:40:31;;;;;;;16.53;10.90;;;;;;;-0.41;100.00;151267.03;4992860;28;20499;-88
2021/01/03 06:43:36;;;;;;;19.00;11.53;;;;;;;-0.41;100.00;151267.03;4996776;28;20834;-89
2021/01/03 06:46:52;;;;;;;20.73;11.63;;;;;;;-0.48;100.00;151247.81;5010258;28;20449;-88
2021/01/03 06:49:58;;;;;;;15.07;10.07;;;;;;;-0.50;100.00;151243.94;4997534;28;20516;-89
2021/01/03 06:52:50;;;;;;;17.40;11.53;;;;;;;-0.44;100.00;151259.34;5003542;28;20444;-89
2021/01/03 06:55:54;;;;;;;20.27;11.83;;;;;;;-0.41;100.00;151267.03;5001467;28;20448;-89
2021/01/03 06:59:15;;;;;;;15.80;10.90;;;;;;;-0.42;100.00;151263.16;5016259;28;20435;-89
2021/01/03 07:01:51;;;;;;;17.37;11.63;;;;;;;-0.46;100.00;151254.22;5017534;28;20452;-88
2021/01/03 07:04:30;;;;;;;17.30;10.53;;;;;;;-0.46;100.00;151252.94;5071503;28;20481;-89
2021/01/03 07:07:11;;;;;;;17.20;10.63;;;;;;;-0.54;100.00;151233.69;5034035;28;20447;-89
2021/01/03 07:09:58;;;;;;;14.20;10.00;;;;;;;-0.55;100.00;151231.13;5016248;28;20828;-88
2021/01/03 07:12:40;;;;;;;18.00;11.20;;;;;;;-0.65;100.00;151206.75;5015946;28;20450;-89
2021/01/03 07:15:39;;;;;;;17.20;11.40;;;;;;;-0.63;100.00;151210.59;5006070;28;20819;-88
2021/01/03 07:18:29;;;;;;;19.33;12.00;;;;;;;-0.60;100.00;151218.28;5024212;28;20455;-89
2021/01/03 07:21:20;;;;;;;20.90;11.60;;;;;;;-0.54;100.00;151233.69;5016016;28;20440;-88
2021/01/03 07:23:56;;;;;;;23.30;13.40;;;;;;;-0.44;100.00;151258.03;5016139;28;20978;-88
2021/01/03 07:26:33;;;;;;;17.80;10.73;;;;;;;-0.40;100.00;151269.63;5025763;28;20827;-89
2021/01/03 07:29:15;;;;;;;19.70;10.97;;;;;;;-0.39;100.00;151272.16;5014319;28;20464;-88
2021/01/03 07:32:00;;;;;;;16.83;11.20;;;;;;;-0.39;100.00;151270.88;5014587;28;20453;-89
2021/01/03 07:34:36;;;;;;;15.17;10.23;;;;;;;-0.40;100.00;151268.34;5013124;28;20484;-89
2021/01/03 07:37:18;;;;;;;17.00;11.83;;;;;;;-0.41;100.00;151267.03;5019095;28;20936;-89
2021/01/03 07:39:58;;;;;;;17.40;11.40;;;;;;;-0.36;100.00;151279.88;5035856;28;20479;-89
2021/01/03 07:42:35;;;;;;;18.67;11.70;;;;;;;-0.34;100.00;151284.97;5007885;28;20486;-88
2021/01/03 07:45:19;;;;;;;17.70;10.63;;;;;;;-0.34;100.00;151284.97;5100340;28;20537;-88
2021/01/03 07:47:55;;;;;;;18.47;10.60;;;;;;;-0.32;100.00;151288.84;5015303;28;20483;-88
2021/01/03 07:50:36;;;;;;;15.43;10.80;;;;;;;-0.31;100.00;151292.69;5017468;28;20440;-87
2021/01/03 07:53:25;;;;;;;16.43;10.50;;;;;;;-0.31;100.00;151291.41;5015895;28;20852;-87
2021/01/03 07:56:15;;;;;;;17.17;11.57;;;;;;;-0.29;100.00;151296.56;5015262;28;20439;-78
2021/01/03 07:58:51;;;;;;;17.23;10.43;;;;;;;-0.31;100.00;151291.41;5014643;28;20436;-77
2021/01/03 08:01:33;;;;;;;18.30;12.10;;;;;;;-0.33;100.00;151287.56;5011678;28;20438;-87
2021/01/03 08:04:10;;;;;;;16.40;10.90;;;;;;;-0.30;100.00;151295.28;5014270;28;20444;-87
2021/01/03 08:06:45;;;;;;;16.40;10.87;;;;;;;-0.32;100.00;151288.84;5015682;28;20472;-87
2021/01/03 08:09:25;;;;;;;16.00;10.30;;;;;;;-0.34;100.00;151283.69;5011962;28;20461;-88
2021/01/03 08:12:10;;;;;;;16.37;10.33;;;;;;;-0.29;100.00;151296.56;5011267;28;20436;-87
2021/01/03 08:14:46;;;;;;;22.37;12.80;;;;;;;-0.31;100.00;151292.69;5011860;28;20440;-88
2021/01/03 08:17:26;;;;;;;18.93;11.53;;;;;;;-0.26;100.00;151305.50;5013380;28;20819;-88
2021/01/03 08:20:15;;;;;;;17.10;11.97;;;;;;;-0.26;100.00;151304.22;5037283;27;20425;-88
2021/01/03 08:22:50;;;;;;;18.03;12.43;;;;;;;-0.28;100.00;151300.41;4998776;28;20449;-77
2021/01/03 08:25:29;;;;;;;19.50;12.67;;;;;;;-0.26;100.00;151305.50;5003782;28;20436;-78
2021/01/03 08:28:08;;;;;;;19.77;12.40;;;;;;;-0.20;100.00;151319.63;5001309;28;20501;-77
2021/01/03 08:30:45;;;;;;;16.33;10.27;;;;;;;-0.22;100.00;151315.81;5008179;28;20452;-77
2021/01/03 08:33:24;;;;;;;20.03;10.47;;;;;;;-0.25;100.00;151308.09;5008946;28;20494;-77
2021/01/03 08:36:14;;;;;;;17.63;12.00;;;;;;;-0.21;100.00;151318.34;5019276;28;20499;-77
2021/01/03 08:38:50;;;;;;;16.47;11.97;;;;;;;-0.23;100.00;151313.22;5012840;28;20453;-77
2021/01/03 08:41:28;;;;;;;17.33;11.10;;;;;;;-0.17;100.00;151327.34;4999093;28;20479;-77
2021/01/03 08:44:05;;;;;;;13.90;9.53;;;;;;;-0.12;100.00;151340.16;4998923;28;20452;-77
2021/01/03 08:46:41;;;;;;;18.83;11.40;;;;;;;-0.14;100.00;151336.34;5001707;28;20527;-77
2021/01/03 08:49:24;;;;;;;18.20;10.90;;;;;;;-0.13;100.00;151337.56;5005157;28;20487;-77
2021/01/03 08:52:15;;;;;;;16.67;11.37;;;;;;;-0.12;100.00;151341.44;5019067;28;20473;-77
2021/01/03 08:55:03;;;;;;;17.60;11.40;;;;;;;-0.09;100.00;151349.16;5005308;28;20455;-77
2021/01/03 08:57:39;;;;;;;19.87;11.13;;;;;;;-0.04;100.00;151360.69;5019744;28;20908;-77
2021/01/03 09:00:20;;;;;;;16.20;10.30;;;;;;;-0.05;100.00;151358.09;5015769;28;20778;-77
2021/01/03 09:02:58;;;;;;;16.30;10.27;;;;;;;-0.07;100.00;151354.28;5018499;28;20539;-77
2021/01/03 09:05:36;;;;;;;17.27;11.47;;;;;;;-0.06;100.00;151355.56;5011461;28;20457;-78
2021/01/03 09:08:15;;;;;;;17.00;10.73;;;;;;;-0.09;100.00;151349.16;5011744;28;20483;-77
2021/01/03 09:10:51;;;;;;;16.80;10.63;;;;;;;-0.03;100.00;151364.53;5017727;28;20452;-77
2021/01/03 09:13:28;;;;;;;16.57;11.43;;;;;;;-0.01;100.00;151368.41;5019149;28;20452;-77
2021/01/03 09:16:23;;;;;;;14.50;10.17;;;;;;;0.01;100.00;151373.53;5001483;28;20441;-77
2021/01/03 09:19:13;;;;;;;16.00;10.00;;;;;;;0.03;100.00;151378.63;5025596;28;20788;-77
2021/01/03 09:21:52;;;;;;;17.63;10.80;;;;;;;0.05;100.00;151383.81;5006637;28;20456;-78
2021/01/03 09:24:29;;;;;;;16.47;10.13;;;;;;;0.11;100.00;151397.94;5014405;28;20443;-78
2021/01/03 09:27:06;;;;;;;16.17;10.80;;;;;;;0.16;100.00;151410.75;5009762;28;20444;-78
2021/01/03 09:29:42;;;;;;;14.77;10.27;;;;;;;0.17;100.00;151414.59;4996744;28;20471;-78
2021/01/03 09:32:26;;;;;;;14.50;9.90;;;;;;;0.15;100.00;151408.19;4998103;28;20448;-78
2021/01/03 09:35:12;;;;;;;18.53;10.67;;;;;;;0.15;100.00;151408.19;5033722;28;20441;-78
2021/01/03 09:38:06;;;;;;;15.53;10.23;;;;;;;0.19;100.00;151418.41;5009958;28;20462;-78
2021/01/03 09:40:48;;;;;;;14.00;9.90;;;;;;;0.22;100.00;151426.13;4997749;28;20443;-78
2021/01/03 09:43:30;;;;;;;16.57;10.30;;;;;;;0.25;100.00;151433.84;5014856;28;20481;-78
2021/01/03 09:46:11;;;;;;;13.23;9.50;;;;;;;0.30;100.00;151446.66;4997113;28;20451;-78
2021/01/03 09:48:46;;;;;;;14.03;8.87;;;;;;;0.29;100.00;151444.13;4998492;28;20476;-78
2021/01/03 09:51:32;;;;;;;14.30;9.87;;;;;;;0.31;100.00;151449.25;5013472;28;20943;-76
2021/01/03 09:54:12;;;;;;;14.93;10.00;;;;;;;0.30;100.00;151447.97;5031002;27;20458;-77
2021/01/03 09:56:51;;;;;;;16.13;10.27;;;;;;;0.28;100.00;151441.53;5014899;28;20532;-76
2021/01/03 09:59:26;;;;;;;14.93;10.90;;;;;;;0.31;100.00;151449.25;5015651;28;20924;-76
2021/01/03 10:02:15;;;;;;;13.03;9.40;;;;;;;0.36;100.00;151462.09;4999101;28;20440;-76
2021/01/03 10:04:51;;;;;;;16.37;9.63;;;;;;;0.37;100.00;151464.66;4999455;28;20544;-76
2021/01/03 10:07:28;;;;;;;19.43;11.23;;;;;;;0.37;100.00;151464.66;5012608;28;20449;-76
2021/01/03 10:10:08;;;;;;;16.00;11.63;;;;;;;0.31;100.00;151450.53;5009754;28;20573;-77
2021/01/03 10:12:43;;;;;;;13.30;9.17;;;;;;;0.30;100.00;151446.66;5014115;28;20439;-76
2021/01/03 10:15:26;;;;;;;16.30;10.20;;;;;;;0.29;100.00;151444.13;5029135;28;20557;-77
2021/01/03 10:18:04;;;;;;;12.17;8.67;;;;;;;0.31;100.00;151449.25;5021291;28;20446;-77
2021/01/03 10:20:43;;;;;;;17.80;10.60;;;;;;;0.32;100.00;151453.06;5014521;28;20465;-77
2021/01/03 10:23:33;;;;;;;15.70;10.47;;;;;;;0.35;100.00;151460.78;4996483;28;20483;-77
2021/01/03 10:26:21;;;;;;;12.77;9.23;;;;;;;0.41;100.00;151474.91;5012548;28;20444;-77
2021/01/03 10:28:57;;;;;;;13.50;9.23;;;;;;;0.39;100.00;151469.78;5012860;28;20472;-76
2021/01/03 10:31:40;;;;;;;12.97;8.20;;;;;;;0.39;100.00;151471.09;5018150;28;20857;-77
2021/01/03 10:34:17;;;;;;;13.83;9.70;;;;;;;0.40;100.00;151472.31;5017529;28;20439;-77
2021/01/03 10:36:53;;;;;;;12.63;8.87;;;;;;;0.37;100.00;151464.66;5001889;28;20447;-78
2021/01/03 10:39:29;;;;;;;14.93;8.90;;;;;;;0.37;100.00;151465.91;5017411;28;20451;-77
2021/01/03 10:42:07;;;;;;;21.83;13.50;;;;;;;0.32;100.00;151451.84;5024237;28;20488;-77
2021/01/03 10:44:43;;;;;;;15.20;10.40;;;;;;;0.31;100.00;151450.53;5022669;28;20796;-77
2021/01/03 10:47:18;;;;;;;13.90;9.80;;;;;;;0.32;100.00;151451.84;5018225;28;20449;-77
2021/01/03 10:49:53;;;;;;;14.77;10.37;;;;;;;0.34;100.00;151456.97;4998541;28;20435;-77
2021/01/03 10:52:29;;;;;;;15.03;10.30;;;;;;;0.34;100.00;151456.97;4998356;28;20442;-77
2021/01/03 10:55:05;;;;;;;16.17;10.87;;;;;;;0.31;100.00;151450.53;5020627;28;20443;-77
2021/01/03 10:57:41;;;;;;;16.60;10.30;;;;;;;0.28;100.00;151442.84;4996201;28;20447;-77
2021/01/03 11:00:17;;;;;;;13.10;10.10;;;;;;;0.25;100.00;151433.84;5017103;28;20442;-77
2021/01/03 11:02:52;;;;;;;16.10;10.70;;;;;;;0.22;100.00;151426.13;5012824;28;20450;-77
2021/01/03 11:05:28;;;;;;;17.90;13.20;;;;;;;0.21;100.00;151423.59;5003699;28;20462;-77
2021/01/03 11:08:03;;;;;;;14.50;10.90;;;;;;;0.28;100.00;151441.53;5017513;28;20547;-77
2021/01/03 11:10:39;;;;;;;14.50;10.23;;;;;;;0.31;100.00;151450.53;5012193;28;21307;-77
2021/01/03 11:13:15;;;;;;;12.40;9.50;;;;;;;0.27;100.00;151440.25;5014262;28;20560;-77
2021/01/03 11:15:50;;;;;;;18.77;12.57;;;;;;;0.25;100.00;151433.84;5032436;28;20480;-77
2021/01/03 11:18:26;;;;;;;17.40;13.50;;;;;;;0.30;100.00;151447.97;5023188;28;20445;-77
2021/01/03 11:21:01;;;;;;;18.40;13.10;;;;;;;0.32;100.00;151451.84;5004248;28;20514;-77
2021/01/03 11:23:37;;;;;;;16.53;12.23;;;;;;;0.32;100.00;151451.84;5010460;28;20442;-77
2021/01/03 11:26:12;;;;;;;31.23;21.97;;;;;;;0.24;100.00;151431.28;5017821;28;20920;-77
2021/01/03 11:28:49;;;;;;;43.40;33.97;;;;;;;0.25;100.00;151435.13;5017436;28;20522;-77
2021/01/03 11:31:31;;;;;;;19.57;13.40;;;;;;;0.26;100.00;151437.72;5020172;28;20603;-77
2021/01/03 11:34:07;;;;;;;25.63;16.60;;;;;;;0.27;100.00;151438.97;5019809;28;20488;-77
2021/01/03 11:36:48;;;;;;;19.43;13.40;;;;;;;0.28;100.00;151441.53;5005718;28;20462;-77
2021/01/03 11:39:23;;;;;;;17.70;12.70;;;;;;;0.27;100.00;151440.25;5022135;28;20432;-77
2021/01/03 11:42:05;;;;;;;17.43;11.10;;;;;;;0.26;100.00;151436.41;5005228;28;20858;-77
2021/01/03 11:44:43;;;;;;;15.80;10.10;;;;;;;0.27;100.00;151438.97;5018096;28;20443;-77
2021/01/03 11:47:18;;;;;;;19.70;11.97;;;;;;;0.28;100.00;151441.53;5002093;28;20450;-77
2021/01/03 11:49:54;;;;;;;17.47;11.83;;;;;;;0.25;100.00;151433.84;5023477;28;20485;-77
2021/01/03 11:52:30;;;;;;;16.70;11.90;;;;;;;0.22;100.00;151427.41;5021471;28;20450;-77
2021/01/03 11:55:08;;;;;;;18.93;12.03;;;;;;;0.21;100.00;151424.88;5016630;28;20484;-77
2021/01/03 11:57:44;;;;;;;17.63;11.33;;;;;;;0.27;100.00;151438.97;5021004;28;20445;-77
2021/01/03 12:00:21;;;;;;;22.87;14.67;;;;;;;0.28;100.00;151441.53;5007325;28;20456;-77
2021/01/03 12:02:57;;;;;;;17.43;12.67;;;;;;;0.29;100.00;151444.13;4960711;28;20455;-77
2021/01/03 12:08:48;;;;;;;20.27;13.30;;;;;;;0.30;100.00;151446.66;4941525;28;21134;-88